Time;durP1;ratioP1;P1;durP2;ratioP2;P2;SDS_P1;SDS_P2;PMS_P1;PMS_P2;Temp;Humidity;BMP_temperature;BMP_pressure;BME280_temperature;BME280_humidity;BME280_pressure;Samples;Min_cycle;Max_cycle;Signal;HPM_P1;HPM_P2
2024/04/13 00:01:32;;;;;;;0.10;0.10;;;20.20;49.30;;;;;;5486190;26;20674;-49
2024/04/13 00:04:07;;;;;;;0.00;0.00;;;20.20;49.30;;;;;;5487494;26;20235;-52
2024/04/13 00:06:39;;;;;;;0.10;0.10;;;20.20;49.30;;;;;;5487899;26;20215;-48
2024/04/13 00:09:11;;;;;;;0.10;0.10;;;20.20;49.30;;;;;;5487684;26;20257;-53
2024/04/13 00:11:40;;;;;;;0.00;0.00;;;20.20;49.20;;;;;;5487375;26;20340;-53
2024/04/13 00:14:13;;;;;;;0.00;0.00;;;20.20;49.30;;;;;;5487290;26;20239;-51
2024/04/13 00:16:42;;;;;;;0.00;0.00;;;20.20;49.20;;;;;;5487340;26;20227;-49
2024/04/13 00:19:15;;;;;;;0.10;0.10;;;20.20;49.20;;;;;;5487638;26;20227;-51
2024/04/13 00:21:47;;;;;;;0.10;0.10;;;20.20;49.20;;;;;;5487431;26;20216;-54
2024/04/13 00:24:20;;;;;;;0.00;0.00;;;20.20;49.10;;;;;;5487407;26;20235;-51
2024/04/13 00:26:49;;;;;;;0.10;0.10;;;20.20;49.20;;;;;;5487880;26;20266;-48
2024/04/13 00:29:22;;;;;;;0.10;0.10;;;20.20;49.10;;;;;;5487285;26;20219;-49
2024/04/13 00:31:51;;;;;;;0.00;0.00;;;20.30;49.10;;;;;;5487007;26;20288;-49
2024/04/13 00:34:24;;;;;;;0.05;0.05;;;20.30;49.00;;;;;;5450648;26;20283;-48
2024/04/13 00:36:56;;;;;;;0.03;0.03;;;20.30;49.10;;;;;;5451230;26;20288;-53
2024/04/13 00:39:29;;;;;;;0.10;0.10;;;20.30;49.10;;;;;;5450771;26;20220;-47
2024/04/13 00:41:58;;;;;;;0.08;0.08;;;20.30;49.10;;;;;;5450569;26;20232;-48
2024/04/13 00:44:31;;;;;;;0.13;0.13;;;20.30;49.10;;;;;;5450462;26;20548;-48
2024/04/13 00:47:05;;;;;;;0.00;0.00;;;20.30;49.10;;;;;;5450701;26;20212;-48
2024/04/13 00:49:38;;;;;;;0.00;0.00;;;20.30;49.00;;;;;;5450418;26;20219;-50
2024/04/13 00:52:12;;;;;;;0.10;0.10;;;20.30;49.00;;;;;;5450628;26;20228;-48
2024/04/13 00:54:46;;;;;;;0.10;0.10;;;20.30;49.00;;;;;;5450444;26;20231;-48
2024/04/13 00:57:15;;;;;;;0.10;0.10;;;20.30;49.00;;;;;;5453804;26;20260;-53
2024/04/13 00:59:49;;;;;;;0.10;0.10;;;20.30;49.00;;;;;;5454722;26;20216;-51
2024/04/13 01:02:21;;;;;;;0.10;0.10;;;20.30;49.00;;;;;;5478835;26;20227;-53
2024/04/13 01:04:54;;;;;;;0.10;0.10;;;20.30;49.00;;;;;;5490660;26;20243;-51
2024/04/13 01:07:26;;;;;;;0.10;0.10;;;20.40;49.00;;;;;;5490047;26;20227;-50
2024/04/13 01:09:58;;;;;;;0.10;0.10;;;20.30;48.90;;;;;;5490675;26;20219;-49
2024/04/13 01:12:28;;;;;;;0.00;0.00;;;20.40;48.90;;;;;;5490425;26;20219;-50
2024/04/13 01:15:00;;;;;;;0.10;0.10;;;20.40;48.90;;;;;;5489465;26;20585;-49
2024/04/13 01:17:29;;;;;;;0.10;0.10;;;20.40;48.90;;;;;;5489982;26;20345;-54
2024/04/13 01:20:02;;;;;;;0.00;0.00;;;20.40;48.90;;;;;;5490034;26;20253;-52
2024/04/13 01:22:37;;;;;;;0.10;0.10;;;20.40;48.90;;;;;;5490003;26;20572;-49
2024/04/13 01:25:13;;;;;;;0.00;0.00;;;20.40;48.90;;;;;;5489954;26;20230;-51
2024/04/13 01:27:42;;;;;;;0.10;0.10;;;20.50;48.90;;;;;;5489996;26;20714;-53
2024/04/13 01:30:16;;;;;;;0.00;0.00;;;20.50;48.90;;;;;;5490171;26;20263;-49
2024/04/13 01:32:45;;;;;;;0.10;0.10;;;20.50;48.90;;;;;;5489705;26;20750;-47
2024/04/13 01:35:19;;;;;;;0.05;0.05;;;20.40;48.80;;;;;;5489072;26;20231;-48
2024/04/13 01:37:48;;;;;;;0.00;0.00;;;20.50;48.90;;;;;;5489797;26;20215;-48
2024/04/13 01:40:24;;;;;;;0.10;0.10;;;20.50;48.90;;;;;;5489824;26;20906;-51
2024/04/13 01:42:53;;;;;;;0.00;0.00;;;20.50;48.90;;;;;;5489327;26;20741;-48
2024/04/13 01:45:25;;;;;;;0.00;0.00;;;20.50;48.90;;;;;;5489364;26;20227;-49
2024/04/13 01:47:54;;;;;;;0.10;0.10;;;20.40;48.80;;;;;;5489482;26;20220;-48
2024/04/13 01:50:27;;;;;;;0.10;0.10;;;20.50;48.90;;;;;;5489747;26;20693;-48
2024/04/13 01:52:56;;;;;;;0.10;0.10;;;20.50;48.80;;;;;;5488909;26;20273;-48
2024/04/13 01:55:32;;;;;;;0.05;0.05;;;20.50;48.80;;;;;;5489439;26;20324;-48
2024/04/13 01:58:01;;;;;;;0.00;0.00;;;20.50;48.70;;;;;;5488919;26;20602;-48
2024/04/13 02:00:33;;;;;;;0.10;0.10;;;20.50;48.70;;;;;;5489072;26;20215;-48
2024/04/13 02:03:02;;;;;;;0.10;0.10;;;20.50;48.70;;;;;;5488640;26;20219;-48
2024/04/13 02:05:38;;;;;;;0.03;0.03;;;20.50;48.70;;;;;;5488109;26;20219;-47
2024/04/13 02:08:08;;;;;;;0.00;0.00;;;20.50;48.70;;;;;;5487876;26;20265;-47
2024/04/13 02:10:43;;;;;;;0.00;0.00;;;20.50;48.70;;;;;;5488685;26;20270;-48
2024/04/13 02:13:12;;;;;;;0.00;0.00;;;20.50;48.80;;;;;;5489095;26;20269;-48
2024/04/13 02:15:51;;;;;;;0.00;0.00;;;20.50;48.70;;;;;;5489406;26;20223;-47
2024/04/13 02:18:20;;;;;;;0.03;0.03;;;20.50;49.30;;;;;;5489377;26;20314;-49
2024/04/13 02:20:52;;;;;;;0.10;0.10;;;20.50;48.70;;;;;;5489096;26;20231;-48
2024/04/13 02:23:21;;;;;;;0.00;0.00;;;20.50;48.70;;;;;;5489210;26;20286;-48
2024/04/13 02:28:40;;;;;;;0.10;0.10;;;20.50;48.70;;;;;;5404385;26;20679;-45
2024/04/13 02:31:10;;;;;;;0.00;0.00;;;20.50;48.70;;;;;;5406852;26;20217;-45
2024/04/13 02:33:42;;;;;;;0.05;0.05;;;20.50;48.70;;;;;;5406216;26;20237;-46
2024/04/13 02:36:12;;;;;;;0.10;0.10;;;20.50;48.90;;;;;;5406493;26;20253;-47
2024/04/13 02:38:46;;;;;;;0.10;0.10;;;20.50;48.70;;;;;;5406504;26;20234;-47
2024/04/13 02:41:15;;;;;;;0.10;0.10;;;20.60;48.70;;;;;;5406884;26;20220;-46
2024/04/13 02:43:52;;;;;;;0.00;0.00;;;20.60;48.70;;;;;;5406106;26;20767;-45
2024/04/13 02:46:23;;;;;;;0.10;0.10;;;20.60;48.70;;;;;;5406653;26;20221;-46
2024/04/13 02:48:55;;;;;;;0.10;0.10;;;20.60;48.70;;;;;;5406763;26;20229;-45
2024/04/13 02:51:24;;;;;;;0.10;0.10;;;20.60;48.70;;;;;;5406636;26;20247;-46
2024/04/13 02:53:57;;;;;;;0.10;0.10;;;20.60;48.70;;;;;;5405669;26;20284;-46
2024/04/13 02:56:26;;;;;;;0.03;0.03;;;20.60;49.30;;;;;;5405805;26;20261;-45
2024/04/13 02:59:01;;;;;;;0.10;0.10;;;20.60;48.70;;;;;;5406019;26;20318;-45
2024/04/13 03:01:31;;;;;;;0.10;0.10;;;20.60;48.70;;;;;;5377404;26;20264;-45
2024/04/13 03:04:03;;;;;;;0.05;0.05;;;20.60;48.70;;;;;;5401509;26;20662;-47
2024/04/13 03:06:32;;;;;;;0.10;0.10;;;20.50;48.60;;;;;;5406520;26;20222;-45
2024/04/13 03:09:05;;;;;;;0.00;0.00;;;20.60;48.60;;;;;;5406566;26;20261;-45
2024/04/13 03:11:34;;;;;;;0.00;0.00;;;20.60;48.60;;;;;;5406728;26;20213;-45
2024/04/13 03:14:09;;;;;;;0.00;0.00;;;20.60;48.70;;;;;;5405440;26;20230;-45
2024/04/13 03:16:39;;;;;;;0.10;0.10;;;20.60;48.70;;;;;;5405615;26;20221;-45
2024/04/13 03:19:11;;;;;;;0.05;0.05;;;20.60;48.70;;;;;;5405740;26;20218;-45
2024/04/13 03:21:40;;;;;;;0.10;0.10;;;20.60;48.70;;;;;;5406089;26;20756;-46
2024/04/13 03:24:13;;;;;;;0.10;0.10;;;20.60;48.70;;;;;;5405794;26;20229;-45
2024/04/13 03:26:42;;;;;;;0.00;0.00;;;20.60;48.70;;;;;;5438777;21;20354;-50
2024/04/13 03:29:18;;;;;;;0.00;0.00;;;20.60;48.60;;;;;;5487931;26;20315;-51
2024/04/13 03:31:48;;;;;;;0.08;0.08;;;20.60;48.60;;;;;;5488176;26;20295;-54
2024/04/13 03:34:20;;;;;;;0.03;0.03;;;20.60;48.60;;;;;;5487870;26;20570;-48
2024/04/13 03:36:49;;;;;;;0.00;0.00;;;20.60;49.20;;;;;;5487600;26;20219;-50
2024/04/13 03:39:21;;;;;;;0.10;0.10;;;20.60;48.60;;;;;;5454866;26;20232;-51
2024/04/13 03:41:51;;;;;;;0.00;0.00;;;20.60;48.60;;;;;;5451151;26;20220;-53
2024/04/13 03:44:26;;;;;;;0.10;0.10;;;20.60;48.70;;;;;;5451431;26;20248;-52
2024/04/13 03:46:55;;;;;;;0.10;0.10;;;20.60;48.60;;;;;;5452025;26;20219;-53
2024/04/13 03:49:28;;;;;;;0.10;0.10;;;20.60;48.60;;;;;;5452064;26;20716;-49
2024/04/13 03:51:57;;;;;;;0.00;0.00;;;20.60;48.60;;;;;;5472288;26;20227;-49
2024/04/13 03:54:29;;;;;;;0.10;0.10;;;20.60;48.60;;;;;;5487881;26;20306;-51
2024/04/13 03:56:58;;;;;;;0.00;0.00;;;20.60;48.70;;;;;;5487144;26;20692;-50
2024/04/13 03:59:34;;;;;;;0.10;0.10;;;20.60;48.60;;;;;;5487015;26;20218;-48
2024/04/13 04:02:03;;;;;;;0.00;0.00;;;20.60;48.70;;;;;;5487310;26;20240;-48
2024/04/13 04:04:35;;;;;;;0.10;0.10;;;20.60;48.70;;;;;;5488101;26;20235;-48
2024/04/13 04:07:05;;;;;;;0.10;0.10;;;20.60;48.70;;;;;;5487676;26;20219;-49
2024/04/13 04:09:37;;;;;;;0.00;0.00;;;20.60;48.70;;;;;;5487994;26;20278;-49
2024/04/13 04:12:09;;;;;;;0.00;0.00;;;20.60;48.70;;;;;;5486705;26;20215;-48
2024/04/13 04:14:45;;;;;;;0.00;0.00;;;20.60;48.70;;;;;;5486412;26;20769;-50
2024/04/13 04:17:14;;;;;;;0.00;0.00;;;20.60;48.70;;;;;;5487051;26;20219;-51
2024/04/13 04:19:46;;;;;;;0.10;0.10;;;20.60;48.70;;;;;;5487299;26;20219;-47
2024/04/13 04:22:15;;;;;;;0.00;0.00;;;20.60;48.70;;;;;;5487415;26;20284;-48
2024/04/13 04:24:48;;;;;;;0.10;0.10;;;20.60;48.70;;;;;;5486557;26;20231;-47
2024/04/13 04:27:18;;;;;;;0.05;0.05;;;20.60;48.70;;;;;;5487598;26;20364;-48
2024/04/13 04:29:53;;;;;;;0.03;0.03;;;20.60;48.70;;;;;;5485247;26;20224;-47
2024/04/13 04:32:24;;;;;;;0.10;0.10;;;20.60;48.70;;;;;;5486701;26;20219;-48
2024/04/13 04:34:56;;;;;;;0.10;0.10;;;20.60;48.70;;;;;;5486692;26;20231;-48
2024/04/13 04:37:25;;;;;;;0.03;0.03;;;20.60;48.70;;;;;;5486804;26;20694;-47
2024/04/13 04:39:57;;;;;;;0.00;0.00;;;20.60;48.70;;;;;;5486627;26;20362;-47
2024/04/13 04:42:28;;;;;;;0.00;0.00;;;20.60;48.70;;;;;;5486885;26;20303;-47
2024/04/13 04:45:04;;;;;;;0.00;0.00;;;20.60;48.70;;;;;;5486986;26;20285;-47
2024/04/13 04:47:33;;;;;;;0.10;0.10;;;20.60;48.70;;;;;;5486572;26;20265;-47
2024/04/13 04:50:05;;;;;;;0.10;0.10;;;20.60;48.70;;;;;;5487133;26;20315;-48
2024/04/13 04:52:35;;;;;;;0.10;0.10;;;20.60;48.80;;;;;;5486790;26;20568;-47
2024/04/13 04:55:07;;;;;;;0.10;0.10;;;20.60;48.80;;;;;;5485822;26;20242;-49
2024/04/13 04:57:36;;;;;;;0.00;0.00;;;20.60;48.80;;;;;;5486222;26;20270;-47
2024/04/13 05:00:14;;;;;;;0.10;0.10;;;20.60;48.80;;;;;;5486549;26;20231;-48
2024/04/13 05:02:43;;;;;;;0.05;0.05;;;20.60;48.90;;;;;;5486718;26;20223;-47
2024/04/13 05:05:15;;;;;;;0.10;0.10;;;20.60;48.90;;;;;;5486445;26;20265;-48
2024/04/13 05:07:45;;;;;;;0.10;0.10;;;20.60;48.90;;;;;;5478523;26;20827;-48
2024/04/13 05:10:18;;;;;;;0.00;0.00;;;20.60;48.90;;;;;;5469612;26;20281;-48
2024/04/13 05:12:47;;;;;;;0.08;0.08;;;20.60;48.90;;;;;;5485974;26;20330;-47
2024/04/13 05:15:23;;;;;;;0.03;0.03;;;20.50;48.90;;;;;;5486048;26;20345;-48
2024/04/13 05:17:52;;;;;;;0.00;0.00;;;20.60;48.90;;;;;;5486418;26;20218;-50
2024/04/13 05:20:25;;;;;;;0.08;0.08;;;20.50;48.90;;;;;;5486041;26;20234;-47
2024/04/13 05:22:54;;;;;;;0.10;0.10;;;20.50;48.90;;;;;;5485787;26;20219;-50
2024/04/13 05:25:26;;;;;;;0.10;0.10;;;20.50;48.80;;;;;;5485418;26;20218;-51
2024/04/13 05:27:56;;;;;;;0.00;0.00;;;20.50;48.90;;;;;;5486034;26;20227;-50
2024/04/13 05:30:31;;;;;;;0.00;0.00;;;20.50;48.90;;;;;;5486111;26;20234;-51
2024/04/13 05:33:01;;;;;;;0.00;0.00;;;20.50;48.80;;;;;;5485901;26;20378;-49
2024/04/13 05:35:33;;;;;;;0.00;0.00;;;20.50;48.80;;;;;;5485327;26;20261;-51
2024/04/13 05:38:05;;;;;;;0.05;0.05;;;20.50;48.90;;;;;;5485310;26;20215;-48
2024/04/13 05:40:37;;;;;;;0.00;0.00;;;20.50;48.90;;;;;;5486254;26;20219;-49
2024/04/13 05:43:10;;;;;;;0.05;0.05;;;20.50;48.90;;;;;;5487668;26;20271;-49
2024/04/13 05:45:42;;;;;;;0.10;0.10;;;20.50;48.90;;;;;;5486654;26;20272;-49
2024/04/13 05:48:14;;;;;;;0.10;0.10;;;20.50;48.90;;;;;;5489488;26;20279;-51
2024/04/13 05:50:52;;;;;;;0.00;0.00;;;20.50;49.00;;;;;;5489647;26;20257;-54
2024/04/13 05:53:24;;;;;;;0.00;0.00;;;20.50;49.00;;;;;;5489193;26;20235;-49
2024/04/13 05:55:53;;;;;;;0.00;0.00;;;20.50;49.60;;;;;;5489208;26;20284;-54
2024/04/13 05:58:26;;;;;;;0.00;0.00;;;20.50;49.00;;;;;;5489222;26;20382;-48
2024/04/13 06:00:58;;;;;;;0.03;0.03;;;20.50;49.00;;;;;;5488266;26;20347;-50
2024/04/13 06:03:30;;;;;;;0.00;0.00;;;20.50;49.00;;;;;;5489003;26;20231;-52
2024/04/13 06:05:59;;;;;;;0.00;0.00;;;20.50;49.00;;;;;;5489514;26;20230;-47
2024/04/13 06:08:32;;;;;;;0.10;0.10;;;20.50;49.00;;;;;;5489321;26;20743;-47
2024/04/13 06:11:03;;;;;;;0.10;0.10;;;20.50;49.00;;;;;;5489271;26;20223;-46
2024/04/13 06:13:35;;;;;;;0.00;0.00;;;20.40;48.90;;;;;;5489045;26;20348;-47
2024/04/13 06:16:11;;;;;;;0.00;0.00;;;20.40;48.90;;;;;;5489211;26;20289;-48
2024/04/13 06:18:43;;;;;;;0.10;0.10;;;20.40;48.90;;;;;;5489070;26;20610;-49
2024/04/13 06:21:12;;;;;;;0.10;0.10;;;20.40;48.90;;;;;;5489551;26;20253;-50
2024/04/13 06:23:44;;;;;;;0.00;0.00;;;20.40;48.90;;;;;;5489107;26;20285;-48
2024/04/13 06:28:49;;;;;;;0.00;0.00;;;20.40;49.00;;;;;;5522861;26;20281;-44
2024/04/13 06:31:22;;;;;;;0.10;0.10;;;20.40;49.00;;;;;;5525566;26;20252;-45
2024/04/13 06:33:56;;;;;;;0.00;0.00;;;20.40;49.00;;;;;;5495473;26;20274;-44
2024/04/13 06:36:25;;;;;;;0.00;0.00;;;20.40;49.00;;;;;;5488653;26;20227;-45
2024/04/13 06:38:58;;;;;;;0.10;0.10;;;20.40;49.00;;;;;;5488521;26;20662;-46
2024/04/13 06:41:27;;;;;;;0.10;0.10;;;20.30;48.90;;;;;;5488619;26;20745;-45
2024/04/13 06:44:03;;;;;;;0.10;0.10;;;20.30;48.90;;;;;;5488361;26;20355;-45
2024/04/13 06:46:35;;;;;;;0.10;0.10;;;20.30;48.90;;;;;;5488787;26;20298;-45
2024/04/13 06:49:07;;;;;;;0.00;0.00;;;20.30;48.90;;;;;;5488963;26;20219;-45
2024/04/13 06:51:36;;;;;;;0.10;0.10;;;20.30;48.90;;;;;;5489591;26;20262;-45
2024/04/13 06:54:09;;;;;;;0.03;0.03;;;20.30;48.90;;;;;;5488057;26;20335;-45
2024/04/13 06:56:38;;;;;;;0.00;0.00;;;20.30;48.90;;;;;;5488831;26;20219;-45
2024/04/13 06:59:10;;;;;;;0.08;0.08;;;20.30;48.90;;;;;;5488709;26;20719;-45
2024/04/13 07:01:42;;;;;;;0.00;0.00;;;20.30;48.90;;;;;;5488268;26;20215;-45
2024/04/13 07:04:15;;;;;;;0.03;0.03;;;20.30;48.90;;;;;;5488420;26;20223;-45
2024/04/13 07:06:44;;;;;;;0.00;0.00;;;20.30;48.90;;;;;;5468599;26;20224;-45
2024/04/13 07:09:16;;;;;;;0.10;0.10;;;20.20;48.90;;;;;;5451775;26;20614;-45
2024/04/13 07:11:45;;;;;;;0.10;0.10;;;20.20;48.90;;;;;;5456622;26;20567;-45
2024/04/13 07:14:18;;;;;;;0.10;0.10;;;20.20;49.00;;;;;;5451833;26;20273;-46
2024/04/13 07:16:50;;;;;;;0.10;0.10;;;20.20;49.00;;;;;;5452185;26;20220;-46
2024/04/13 07:19:23;;;;;;;0.10;0.10;;;20.20;48.90;;;;;;5452227;26;20670;-46
2024/04/13 07:21:52;;;;;;;0.10;0.10;;;20.20;49.00;;;;;;5452404;26;20262;-46
2024/04/13 07:24:24;;;;;;;0.10;0.10;;;20.20;48.90;;;;;;5452258;26;20315;-45
2024/04/13 07:26:53;;;;;;;0.10;0.10;;;20.20;48.90;;;;;;5465257;21;20291;-47
2024/04/13 07:29:25;;;;;;;0.10;0.10;;;20.20;49.00;;;;;;5441090;26;20315;-47
2024/04/13 07:31:58;;;;;;;0.10;0.10;;;20.20;49.00;;;;;;5441847;26;20213;-48
2024/04/13 07:34:31;;;;;;;0.10;0.10;;;20.20;49.00;;;;;;5406097;26;20292;-49
2024/04/13 07:37:00;;;;;;;0.10;0.10;;;20.20;49.00;;;;;;5403116;26;20242;-47
2024/04/13 07:39:32;;;;;;;0.10;0.10;;;20.10;48.90;;;;;;5406575;26;20218;-50
2024/04/13 07:42:02;;;;;;;0.00;0.00;;;20.20;49.00;;;;;;5399426;26;20742;-50
2024/04/13 07:44:35;;;;;;;0.00;0.00;;;20.10;48.90;;;;;;5406118;26;20579;-50
2024/04/13 07:47:07;;;;;;;0.00;0.00;;;20.10;48.90;;;;;;5406867;26;20255;-51
2024/04/13 07:49:40;;;;;;;0.10;0.10;;;20.10;49.00;;;;;;5406247;26;20225;-53
2024/04/13 07:52:09;;;;;;;0.10;0.10;;;20.10;49.00;;;;;;5400678;26;20230;-51
2024/04/13 07:54:42;;;;;;;0.00;0.00;;;20.10;49.00;;;;;;5405670;26;20241;-48
2024/04/13 07:57:11;;;;;;;0.10;0.10;;;20.10;49.00;;;;;;5405822;26;20213;-49
2024/04/13 07:59:43;;;;;;;0.10;0.10;;;20.10;49.00;;;;;;5405036;26;20752;-47
2024/04/13 08:02:15;;;;;;;0.00;0.00;;;20.10;49.00;;;;;;5405289;26;20321;-49
2024/04/13 08:04:48;;;;;;;0.10;0.10;;;20.10;49.00;;;;;;5405558;26;20322;-52
2024/04/13 08:07:17;;;;;;;0.05;0.05;;;20.10;49.00;;;;;;5400955;26;20358;-53
2024/04/13 08:09:50;;;;;;;0.10;0.10;;;20.00;48.90;;;;;;5404944;26;20233;-50
2024/04/13 08:12:19;;;;;;;0.00;0.00;;;20.00;49.00;;;;;;5402005;26;20239;-49
2024/04/13 08:14:51;;;;;;;0.00;0.00;;;20.00;49.00;;;;;;5404616;26;20233;-48
2024/04/13 08:17:26;;;;;;;0.10;0.10;;;20.00;49.00;;;;;;5404981;26;20697;-52
2024/04/13 08:19:59;;;;;;;0.10;0.10;;;20.00;49.10;;;;;;5404826;26;20264;-50
2024/04/13 08:22:28;;;;;;;0.10;0.10;;;20.00;49.00;;;;;;5404044;26;20221;-51
2024/04/13 08:25:00;;;;;;;0.00;0.00;;;20.00;49.00;;;;;;5404692;26;20586;-51
2024/04/13 08:27:31;;;;;;;0.20;0.20;;;20.00;49.10;;;;;;5404987;26;20763;-49
2024/04/13 08:30:03;;;;;;;0.00;0.00;;;20.00;49.10;;;;;;5404728;26;20281;-54
2024/04/13 08:32:36;;;;;;;0.10;0.10;;;19.90;49.00;;;;;;5404227;26;20330;-47
2024/04/13 08:35:09;;;;;;;0.08;0.08;;;19.90;49.00;;;;;;5404014;26;20237;-50
2024/04/13 08:37:38;;;;;;;0.10;0.10;;;19.90;49.00;;;;;;5403470;26;20217;-60
2024/04/13 08:40:14;;;;;;;0.10;0.10;;;19.90;49.10;;;;;;5404926;26;20221;-50
2024/04/13 08:42:44;;;;;;;0.10;0.10;;;19.90;49.80;;;;;;5404851;26;20259;-50
2024/04/13 08:45:16;;;;;;;0.10;0.10;;;19.90;49.20;;;;;;5404122;26;20218;-52
2024/04/13 08:47:49;;;;;;;0.03;0.03;;;19.90;49.30;;;;;;5404854;26;20221;-50
2024/04/13 08:50:21;;;;;;;0.08;0.08;;;19.90;49.30;;;;;;5403643;26;20293;-50
2024/04/13 08:52:51;;;;;;;0.00;0.00;;;19.90;49.40;;;;;;5402578;26;20633;-50
2024/04/13 08:55:25;;;;;;;0.00;0.00;;;19.90;49.30;;;;;;5388942;26;22386;-51
2024/04/13 08:57:54;;;;;;;0.10;0.10;;;19.90;49.30;;;;;;5381868;26;20226;-52
2024/04/13 09:00:27;;;;;;;0.10;0.10;;;19.90;49.30;;;;;;5398932;26;20221;-51
2024/04/13 09:02:59;;;;;;;0.00;0.00;;;19.80;50.00;;;;;;5381442;26;20294;-50
2024/04/13 09:05:32;;;;;;;0.05;0.05;;;19.80;49.30;;;;;;5378682;26;20785;-51
2024/04/13 09:08:04;;;;;;;0.10;0.10;;;19.80;49.40;;;;;;5398560;26;20682;-51
2024/04/13 09:10:42;;;;;;;0.05;0.05;;;19.80;49.40;;;;;;5399067;26;20699;-49
2024/04/13 09:13:11;;;;;;;0.10;0.10;;;19.80;49.40;;;;;;5390310;26;20225;-50
2024/04/13 09:15:44;;;;;;;0.00;0.00;;;19.80;49.50;;;;;;5364668;26;20343;-52
2024/04/13 09:18:16;;;;;;;0.10;0.10;;;19.80;49.50;;;;;;5367045;26;20218;-52
2024/04/13 09:20:49;;;;;;;0.00;0.00;;;19.80;49.50;;;;;;5368403;26;20565;-52
2024/04/13 09:23:19;;;;;;;0.08;0.08;;;19.80;49.50;;;;;;5369975;26;20298;-53
2024/04/13 09:25:51;;;;;;;0.10;0.10;;;19.80;49.50;;;;;;5402949;26;20225;-48
2024/04/13 09:28:20;;;;;;;0.10;0.10;;;19.80;49.50;;;;;;5403091;26;20334;-50
2024/04/13 09:30:53;;;;;;;0.10;0.10;;;19.80;49.50;;;;;;5380089;26;20298;-50
2024/04/13 09:33:25;;;;;;;0.00;0.00;;;19.80;49.50;;;;;;5388992;26;20340;-52
2024/04/13 09:36:03;;;;;;;0.10;0.10;;;19.80;49.50;;;;;;5394125;26;20225;-52
2024/04/13 09:38:32;;;;;;;0.05;0.05;;;19.80;49.50;;;;;;5402760;26;20213;-49
2024/04/13 09:41:05;;;;;;;0.10;0.10;;;19.80;49.50;;;;;;5402683;26;20845;-46
2024/04/13 09:43:35;;;;;;;0.08;0.08;;;19.80;49.50;;;;;;5401751;26;20229;-49
2024/04/13 09:46:08;;;;;;;0.03;0.03;;;19.70;49.50;;;;;;5401638;26;20225;-53
2024/04/13 09:48:41;;;;;;;0.10;0.10;;;19.70;49.50;;;;;;5401400;26;20336;-50
2024/04/13 09:51:13;;;;;;;0.10;0.10;;;19.70;49.50;;;;;;5401412;26;20225;-48
2024/04/13 09:53:43;;;;;;;0.10;0.10;;;19.70;49.50;;;;;;5402083;26;20752;-50
2024/04/13 09:56:15;;;;;;;0.10;0.10;;;19.70;49.50;;;;;;5400646;26;20222;-50
2024/04/13 09:58:45;;;;;;;0.00;0.00;;;19.70;49.50;;;;;;5400793;26;20213;-49
2024/04/13 10:01:17;;;;;;;0.00;0.00;;;19.70;49.50;;;;;;5400630;26;20221;-50
2024/04/13 10:03:49;;;;;;;0.10;0.10;;;19.70;49.50;;;;;;5399663;26;20217;-49
2024/04/13 10:06:22;;;;;;;0.10;0.10;;;19.70;49.50;;;;;;5402586;26;20218;-51
2024/04/13 10:08:52;;;;;;;0.10;0.10;;;19.70;49.50;;;;;;5401897;26;20218;-53
2024/04/13 10:11:27;;;;;;;0.10;0.10;;;19.60;49.50;;;;;;5380133;26;20616;-49
2024/04/13 10:13:57;;;;;;;0.00;0.00;;;19.70;49.60;;;;;;5370135;26;20269;-48
2024/04/13 10:16:31;;;;;;;0.00;0.00;;;19.60;49.50;;;;;;5371247;26;20226;-54
2024/04/13 10:19:03;;;;;;;0.10;0.10;;;19.60;49.50;;;;;;5371072;26;20269;-51
2024/04/13 10:21:40;;;;;;;0.00;0.00;;;19.60;49.60;;;;;;5372850;26;20246;-50
2024/04/13 10:24:16;;;;;;;0.00;0.00;;;19.60;49.50;;;;;;5371119;26;20281;-49
2024/04/13 10:26:49;;;;;;;0.10;0.10;;;19.60;49.50;;;;;;5371359;26;20286;-49
2024/04/13 10:29:26;;;;;;;0.00;0.00;;;19.60;49.50;;;;;;5370612;26;20222;-48
2024/04/13 10:31:58;;;;;;;0.03;0.03;;;19.60;49.60;;;;;;5371018;26;20226;-47
2024/04/13 10:34:31;;;;;;;0.03;0.03;;;19.60;49.60;;;;;;5404540;26;20709;-48
2024/04/13 10:37:04;;;;;;;0.00;0.00;;;19.60;49.60;;;;;;5379955;26;20726;-55
2024/04/13 10:39:33;;;;;;;0.03;0.03;;;19.60;49.60;;;;;;5402040;26;20228;-46
2024/04/13 10:42:15;;;;;;;0.10;0.10;;;19.50;49.70;;;;;;5423015;26;20337;-48
2024/04/13 10:44:48;;;;;;;0.00;0.00;;;19.60;49.70;;;;;;5399988;26;20233;-49
2024/04/13 10:47:18;;;;;;;0.03;0.03;;;19.60;49.70;;;;;;5401496;26;20656;-50
2024/04/13 10:49:54;;;;;;;0.10;0.10;;;19.60;49.70;;;;;;5366522;26;20262;-48
2024/04/13 10:52:24;;;;;;;0.10;0.10;;;19.60;49.70;;;;;;5365277;26;20254;-50
2024/04/13 10:55:00;;;;;;;0.00;0.00;;;19.50;49.70;;;;;;5388140;26;20340;-48
2024/04/13 10:57:29;;;;;;;0.00;0.00;;;19.50;49.70;;;;;;5400487;26;20250;-50
2024/04/13 11:00:02;;;;;;;0.00;0.00;;;19.50;50.30;;;;;;5401895;26;20781;-50
2024/04/13 11:02:31;;;;;;;0.10;0.10;;;19.50;49.70;;;;;;5401041;26;20567;-49
2024/04/13 11:05:07;;;;;;;0.00;0.00;;;19.50;49.70;;;;;;5400558;26;20245;-52
2024/04/13 11:07:36;;;;;;;0.00;0.00;;;19.50;49.70;;;;;;5400969;26;20865;-47
2024/04/13 11:10:10;;;;;;;0.00;0.00;;;19.50;49.70;;;;;;5400364;26;20221;-48
2024/04/13 11:12:39;;;;;;;0.00;0.00;;;19.50;49.70;;;;;;5382108;26;20246;-48
2024/04/13 11:15:12;;;;;;;0.10;0.10;;;19.50;49.70;;;;;;5380776;26;20233;-50
2024/04/13 11:17:41;;;;;;;0.10;0.10;;;19.50;49.70;;;;;;5365616;26;20751;-49
2024/04/13 11:20:16;;;;;;;0.10;0.10;;;19.50;49.70;;;;;;5364797;26;20222;-49
2024/04/13 11:22:46;;;;;;;0.20;0.20;;;19.50;49.70;;;;;;5364360;26;20277;-45
2024/04/13 11:25:19;;;;;;;0.08;0.08;;;19.40;49.70;;;;;;5365185;26;20598;-48
2024/04/13 11:27:48;;;;;;;0.10;0.10;;;19.40;49.70;;;;;;5373303;26;20230;-49
2024/04/13 11:30:22;;;;;;;0.00;0.00;;;19.40;49.70;;;;;;5400031;26;20297;-47
2024/04/13 11:32:51;;;;;;;0.10;0.10;;;19.40;49.70;;;;;;5401010;26;20268;-45
2024/04/13 11:35:27;;;;;;;0.00;0.00;;;19.40;49.70;;;;;;5381910;26;20254;-47
2024/04/13 11:37:58;;;;;;;0.00;0.00;;;19.40;49.80;;;;;;5365897;26;20214;-49
2024/04/13 11:40:35;;;;;;;0.00;0.00;;;19.40;49.70;;;;;;5366476;26;20277;-49
2024/04/13 11:43:05;;;;;;;0.00;0.00;;;19.40;49.70;;;;;;5391444;26;20225;-48
2024/04/13 11:45:37;;;;;;;0.00;0.00;;;19.40;49.70;;;;;;5401172;26;20326;-47
2024/04/13 11:48:08;;;;;;;0.10;0.10;;;19.40;49.80;;;;;;5380831;26;20230;-48
2024/04/13 11:50:43;;;;;;;0.10;0.10;;;19.40;49.80;;;;;;5383025;26;20230;-47
2024/04/13 11:53:12;;;;;;;0.10;0.10;;;19.40;49.70;;;;;;5382265;26;20230;-50
2024/04/13 11:55:44;;;;;;;0.00;0.00;;;19.40;49.70;;;;;;5383515;26;20263;-47
2024/04/13 11:58:22;;;;;;;0.00;0.00;;;19.40;49.80;;;;;;5382011;26;20226;-48
2024/04/13 12:00:54;;;;;;;0.10;0.10;;;19.40;49.80;;;;;;5380496;26;20642;-49
2024/04/13 12:03:23;;;;;;;0.00;0.00;;;19.40;49.80;;;;;;5377840;26;20337;-51
2024/04/13 12:05:59;;;;;;;0.00;0.00;;;19.40;49.80;;;;;;5368951;26;20231;-46
2024/04/13 12:08:28;;;;;;;0.00;0.00;;;19.40;49.80;;;;;;5377886;26;20615;-53
2024/04/13 12:11:00;;;;;;;0.00;0.00;;;19.30;49.80;;;;;;5400410;26;20222;-48
2024/04/13 12:13:29;;;;;;;0.10;0.10;;;19.40;49.80;;;;;;5400370;26;20837;-47
2024/04/13 12:16:02;;;;;;;0.00;0.00;;;19.30;49.80;;;;;;5400243;26;20225;-48
2024/04/13 12:18:31;;;;;;;0.10;0.10;;;19.40;49.80;;;;;;5400956;26;20252;-49
2024/04/13 12:21:06;;;;;;;0.00;0.00;;;19.30;49.80;;;;;;5400206;26;20276;-54
2024/04/13 12:23:36;;;;;;;0.00;0.00;;;19.30;49.80;;;;;;5400298;26;20508;-51
2024/04/13 12:26:08;;;;;;;0.00;0.00;;;19.30;49.80;;;;;;5398208;26;20229;-49
2024/04/13 12:28:38;;;;;;;0.00;0.00;;;19.30;49.80;;;;;;5399832;26;20226;-49
2024/04/13 12:31:10;;;;;;;0.00;0.00;;;19.30;49.80;;;;;;5383456;26;20518;-47
2024/04/13 12:33:41;;;;;;;0.00;0.00;;;19.30;49.80;;;;;;5390205;26;20717;-47
2024/04/13 12:36:17;;;;;;;0.00;0.00;;;19.30;49.80;;;;;;5402770;26;20234;-50
2024/04/13 12:38:47;;;;;;;0.10;0.10;;;19.30;50.40;;;;;;5404480;26;20338;-48
2024/04/13 12:41:19;;;;;;;0.10;0.10;;;19.30;49.80;;;;;;5404967;26;20225;-50
2024/04/13 12:43:48;;;;;;;0.10;0.10;;;19.30;49.70;;;;;;5404546;26;20363;-50
2024/04/13 12:46:20;;;;;;;0.00;0.00;;;19.30;49.70;;;;;;5404213;26;20581;-49
2024/04/13 12:48:50;;;;;;;0.00;0.00;;;19.30;49.80;;;;;;5404749;26;20229;-49
2024/04/13 12:51:25;;;;;;;0.00;0.00;;;19.30;49.80;;;;;;5403986;26;20701;-51
2024/04/13 12:53:55;;;;;;;0.08;0.08;;;19.20;49.70;;;;;;5404993;26;20229;-50
2024/04/13 12:56:27;;;;;;;0.10;0.10;;;19.20;49.70;;;;;;5404591;26;20221;-49
2024/04/13 12:58:57;;;;;;;0.10;0.10;;;19.20;49.70;;;;;;5373278;26;20217;-52
2024/04/13 13:01:30;;;;;;;0.00;0.00;;;19.20;49.70;;;;;;5405061;26;20694;-50
2024/04/13 13:03:59;;;;;;;0.08;0.08;;;19.20;49.80;;;;;;5404850;26;20241;-48
2024/04/13 13:06:37;;;;;;;0.00;0.00;;;19.20;49.70;;;;;;5404731;26;20272;-49
2024/04/13 13:09:06;;;;;;;0.00;0.00;;;19.20;49.80;;;;;;5399326;26;20317;-49
2024/04/13 13:11:39;;;;;;;0.10;0.10;;;19.20;49.80;;;;;;5404486;26;20243;-50
2024/04/13 13:14:08;;;;;;;0.10;0.10;;;19.20;49.80;;;;;;5404442;26;20238;-49
2024/04/13 13:16:41;;;;;;;0.00;0.00;;;19.20;49.80;;;;;;5403369;26;20225;-52